sensor_id;sensor_type;location;lat;lon;timestamp;temperature;humidity
31687;DHT22;18285;51.330;4.946;2023-06-14T00:00:25;23.60;45.70
31687;DHT22;18285;51.330;4.946;2023-06-14T00:24:35;23.60;45.20
31687;DHT22;18285;51.330;4.946;2023-06-14T00:48:47;23.60;45.20
31687;DHT22;18285;51.330;4.946;2023-06-14T01:13:09;23.60;45.20
31687;DHT22;18285;51.330;4.946;2023-06-14T01:37:22;23.50;45.10
31687;DHT22;18285;51.330;4.946;2023-06-14T02:01:34;23.50;45.10
31687;DHT22;18285;51.330;4.946;2023-06-14T02:25:45;23.50;45.00
31687;DHT22;18285;51.330;4.946;2023-06-14T02:49:56;23.40;44.90
31687;DHT22;18285;51.330;4.946;2023-06-14T03:14:07;23.40;44.90
31687;DHT22;18285;51.330;4.946;2023-06-14T03:38:18;23.40;44.80
31687;DHT22;18285;51.330;4.946;2023-06-14T04:02:29;23.40;44.70
31687;DHT22;18285;51.330;4.946;2023-06-14T04:26:42;23.30;44.60
31687;DHT22;18285;51.330;4.946;2023-06-14T04:50:55;23.30;44.50
31687;DHT22;18285;51.330;4.946;2023-06-14T05:15:06;23.20;44.30
31687;DHT22;18285;51.330;4.946;2023-06-14T05:39:19;23.10;41.50
31687;DHT22;18285;51.330;4.946;2023-06-14T06:03:33;23.00;41.60
31687;DHT22;18285;51.330;4.946;2023-06-14T06:27:44;23.00;41.70
31687;DHT22;18285;51.330;4.946;2023-06-14T06:52:06;23.00;42.90
31687;DHT22;18285;51.330;4.946;2023-06-14T07:16:17;23.10;43.60
31687;DHT22;18285;51.330;4.946;2023-06-14T07:40:27;23.10;44.00
31687;DHT22;18285;51.330;4.946;2023-06-14T08:04:38;23.20;44.60
31687;DHT22;18285;51.330;4.946;2023-06-14T08:28:49;23.20;45.00
31687;DHT22;18285;51.330;4.946;2023-06-14T08:53:01;23.20;46.30
31687;DHT22;18285;51.330;4.946;2023-06-14T09:17:13;23.30;46.20
31687;DHT22;18285;51.330;4.946;2023-06-14T09:41:34;23.30;46.30
31687;DHT22;18285;51.330;4.946;2023-06-14T10:05:46;23.40;46.40
31687;DHT22;18285;51.330;4.946;2023-06-14T10:54:13;23.40;46.50
31687;DHT22;18285;51.330;4.946;2023-06-14T11:18:24;23.40;46.60
31687;DHT22;18285;51.330;4.946;2023-06-14T11:42:36;23.40;46.30
31687;DHT22;18285;51.330;4.946;2023-06-14T12:06:47;23.40;45.80
31687;DHT22;18285;51.330;4.946;2023-06-14T12:30:58;23.40;45.90
31687;DHT22;18285;51.330;4.946;2023-06-14T12:55:09;23.30;45.20
31687;DHT22;18285;51.330;4.946;2023-06-14T13:19:20;23.40;45.40
31687;DHT22;18285;51.330;4.946;2023-06-14T13:43:31;23.40;45.50
31687;DHT22;18285;51.330;4.946;2023-06-14T14:07:42;23.40;45.60
31687;DHT22;18285;51.330;4.946;2023-06-14T14:31:52;23.50;47.60
31687;DHT22;18285;51.330;4.946;2023-06-14T14:56:03;23.50;47.60
31687;DHT22;18285;51.330;4.946;2023-06-14T15:20:14;23.50;47.40
31687;DHT22;18285;51.330;4.946;2023-06-14T15:44:25;23.50;47.50
31687;DHT22;18285;51.330;4.946;2023-06-14T16:08:36;23.40;47.30
31687;DHT22;18285;51.330;4.946;2023-06-14T16:32:47;23.50;46.90
31687;DHT22;18285;51.330;4.946;2023-06-14T16:56:57;23.50;47.80
31687;DHT22;18285;51.330;4.946;2023-06-14T17:21:08;23.50;47.40
31687;DHT22;18285;51.330;4.946;2023-06-14T17:45:19;23.50;47.40
31687;DHT22;18285;51.330;4.946;2023-06-14T18:09:30;23.50;47.30
31687;DHT22;18285;51.330;4.946;2023-06-14T18:33:40;23.50;47.20
31687;DHT22;18285;51.330;4.946;2023-06-14T18:57:51;23.50;47.10
31687;DHT22;18285;51.330;4.946;2023-06-14T19:22:02;23.50;46.80
31687;DHT22;18285;51.330;4.946;2023-06-14T19:46:13;23.60;47.20
31687;DHT22;18285;51.330;4.946;2023-06-14T20:10:28;23.60;46.50
31687;DHT22;18285;51.330;4.946;2023-06-14T20:34:39;23.60;45.40
31687;DHT22;18285;51.330;4.946;2023-06-14T20:58:50;23.50;44.60
31687;DHT22;18285;51.330;4.946;2023-06-14T21:23:00;23.50;47.10
31687;DHT22;18285;51.330;4.946;2023-06-14T21:47:12;23.40;47.90
31687;DHT22;18285;51.330;4.946;2023-06-14T22:11:23;23.40;48.20
31687;DHT22;18285;51.330;4.946;2023-06-14T22:35:39;23.30;48.40
31687;DHT22;18285;51.330;4.946;2023-06-14T22:59:50;23.20;48.20
31687;DHT22;18285;51.330;4.946;2023-06-14T23:24:04;23.20;48.20
31687;DHT22;18285;51.330;4.946;2023-06-14T23:48:15;23.20;48.10
